sensor_id;sensor_type;location;lat;lon;timestamp;temperature;humidity
67820;DHT22;54618;52.018;5.576;2022-09-12T00:01:45;21.40;67.00
67820;DHT22;54618;52.018;5.576;2022-09-12T00:04:10;21.40;67.00
67820;DHT22;54618;52.018;5.576;2022-09-12T00:06:37;21.40;67.00
67820;DHT22;54618;52.018;5.576;2022-09-12T00:09:11;21.40;67.00
67820;DHT22;54618;52.018;5.576;2022-09-12T00:11:40;21.40;67.00
67820;DHT22;54618;52.018;5.576;2022-09-12T00:14:08;21.40;67.00
67820;DHT22;54618;52.018;5.576;2022-09-12T00:16:35;21.40;67.00
67820;DHT22;54618;52.018;5.576;2022-09-12T00:19:01;21.40;67.00
67820;DHT22;54618;52.018;5.576;2022-09-12T00:21:27;21.40;67.00
67820;DHT22;54618;52.018;5.576;2022-09-12T00:23:54;21.40;67.00
67820;DHT22;54618;52.018;5.576;2022-09-12T00:26:20;21.40;67.00
67820;DHT22;54618;52.018;5.576;2022-09-12T00:28:46;21.40;67.10
67820;DHT22;54618;52.018;5.576;2022-09-12T00:31:18;21.40;67.00
67820;DHT22;54618;52.018;5.576;2022-09-12T00:33:44;21.40;67.00
67820;DHT22;54618;52.018;5.576;2022-09-12T00:36:20;21.40;67.00
67820;DHT22;54618;52.018;5.576;2022-09-12T00:38:47;21.40;67.00
67820;DHT22;54618;52.018;5.576;2022-09-12T00:41:17;21.40;67.40
67820;DHT22;54618;52.018;5.576;2022-09-12T00:43:50;21.40;67.00
67820;DHT22;54618;52.018;5.576;2022-09-12T00:49:25;21.40;67.00
67820;DHT22;54618;52.018;5.576;2022-09-12T00:52:12;21.40;67.00
67820;DHT22;54618;52.018;5.576;2022-09-12T00:54:44;21.40;66.90
67820;DHT22;54618;52.018;5.576;2022-09-12T00:57:13;21.40;66.90
67820;DHT22;54618;52.018;5.576;2022-09-12T00:59:54;21.40;66.90
67820;DHT22;54618;52.018;5.576;2022-09-12T01:02:21;21.40;66.90
67820;DHT22;54618;52.018;5.576;2022-09-12T01:04:47;21.40;66.90
67820;DHT22;54618;52.018;5.576;2022-09-12T01:07:14;21.40;66.90
67820;DHT22;54618;52.018;5.576;2022-09-12T01:09:41;21.40;66.90
67820;DHT22;54618;52.018;5.576;2022-09-12T01:12:07;21.40;66.90
67820;DHT22;54618;52.018;5.576;2022-09-12T01:14:33;21.40;66.90
67820;DHT22;54618;52.018;5.576;2022-09-12T01:16:59;21.40;66.90
67820;DHT22;54618;52.018;5.576;2022-09-12T01:28:36;21.40;66.90
67820;DHT22;54618;52.018;5.576;2022-09-12T01:31:23;21.30;66.80
67820;DHT22;54618;52.018;5.576;2022-09-12T01:36:45;21.40;66.90
67820;DHT22;54618;52.018;5.576;2022-09-12T01:39:24;21.40;66.90
67820;DHT22;54618;52.018;5.576;2022-09-12T01:50:06;21.30;66.80
67820;DHT22;54618;52.018;5.576;2022-09-12T01:55:35;21.30;66.80
67820;DHT22;54618;52.018;5.576;2022-09-12T01:58:06;21.30;66.80
67820;DHT22;54618;52.018;5.576;2022-09-12T02:00:37;21.30;66.80
67820;DHT22;54618;52.018;5.576;2022-09-12T02:03:11;21.30;66.80
67820;DHT22;54618;52.018;5.576;2022-09-12T02:05:57;21.30;66.80
67820;DHT22;54618;52.018;5.576;2022-09-12T02:08:31;21.30;66.80
67820;DHT22;54618;52.018;5.576;2022-09-12T02:11:09;21.30;66.70
67820;DHT22;54618;52.018;5.576;2022-09-12T02:13:58;21.30;66.70
67820;DHT22;54618;52.018;5.576;2022-09-12T02:16:47;21.30;66.70
67820;DHT22;54618;52.018;5.576;2022-09-12T02:19:19;21.30;66.70
67820;DHT22;54618;52.018;5.576;2022-09-12T02:22:00;21.30;66.70
67820;DHT22;54618;52.018;5.576;2022-09-12T02:24:36;21.30;66.70
67820;DHT22;54618;52.018;5.576;2022-09-12T02:27:13;21.30;66.70
67820;DHT22;54618;52.018;5.576;2022-09-12T02:29:40;21.30;66.70
67820;DHT22;54618;52.018;5.576;2022-09-12T02:35:02;21.30;66.70
67820;DHT22;54618;52.018;5.576;2022-09-12T02:37:42;21.30;66.70
67820;DHT22;54618;52.018;5.576;2022-09-12T02:40:10;21.30;66.70
67820;DHT22;54618;52.018;5.576;2022-09-12T02:42:37;21.30;67.30
67820;DHT22;54618;52.018;5.576;2022-09-12T02:45:03;21.30;66.70
67820;DHT22;54618;52.018;5.576;2022-09-12T02:47:35;21.30;66.70
67820;DHT22;54618;52.018;5.576;2022-09-12T02:50:02;21.30;66.70
67820;DHT22;54618;52.018;5.576;2022-09-12T02:52:30;21.30;66.60
67820;DHT22;54618;52.018;5.576;2022-09-12T02:54:57;21.30;66.60
67820;DHT22;54618;52.018;5.576;2022-09-12T02:57:23;21.30;66.60
67820;DHT22;54618;52.018;5.576;2022-09-12T02:59:52;21.30;66.70
67820;DHT22;54618;52.018;5.576;2022-09-12T03:03:05;21.30;66.60
67820;DHT22;54618;52.018;5.576;2022-09-12T03:05:59;21.30;66.60
67820;DHT22;54618;52.018;5.576;2022-09-12T03:13:35;21.30;66.50
67820;DHT22;54618;52.018;5.576;2022-09-12T03:16:15;21.30;66.60
67820;DHT22;54618;52.018;5.576;2022-09-12T03:21:32;21.30;66.50
67820;DHT22;54618;52.018;5.576;2022-09-12T03:24:23;21.30;66.50
67820;DHT22;54618;52.018;5.576;2022-09-12T03:27:00;21.30;66.40
67820;DHT22;54618;52.018;5.576;2022-09-12T03:29:27;21.30;66.40
67820;DHT22;54618;52.018;5.576;2022-09-12T03:31:56;21.30;66.50
67820;DHT22;54618;52.018;5.576;2022-09-12T03:34:25;21.30;66.40
67820;DHT22;54618;52.018;5.576;2022-09-12T03:36:51;21.30;66.40
67820;DHT22;54618;52.018;5.576;2022-09-12T03:39:20;21.30;66.40
67820;DHT22;54618;52.018;5.576;2022-09-12T03:41:45;21.30;66.40
67820;DHT22;54618;52.018;5.576;2022-09-12T03:44:11;21.30;66.40
67820;DHT22;54618;52.018;5.576;2022-09-12T03:46:36;21.30;66.40
67820;DHT22;54618;52.018;5.576;2022-09-12T03:49:02;21.30;66.40
67820;DHT22;54618;52.018;5.576;2022-09-12T03:51:28;21.30;66.40
67820;DHT22;54618;52.018;5.576;2022-09-12T03:53:54;21.30;66.40
67820;DHT22;54618;52.018;5.576;2022-09-12T03:56:19;21.20;66.30
67820;DHT22;54618;52.018;5.576;2022-09-12T03:58:45;21.30;66.30
67820;DHT22;54618;52.018;5.576;2022-09-12T04:01:16;21.20;66.60
67820;DHT22;54618;52.018;5.576;2022-09-12T04:03:44;21.30;66.40
67820;DHT22;54618;52.018;5.576;2022-09-12T04:06:11;21.30;66.30
67820;DHT22;54618;52.018;5.576;2022-09-12T04:08:38;21.20;66.30
67820;DHT22;54618;52.018;5.576;2022-09-12T04:11:12;21.20;65.90
67820;DHT22;54618;52.018;5.576;2022-09-12T04:13:39;21.20;65.80
67820;DHT22;54618;52.018;5.576;2022-09-12T04:16:05;21.20;65.70
67820;DHT22;54618;52.018;5.576;2022-09-12T04:18:32;21.20;65.60
67820;DHT22;54618;52.018;5.576;2022-09-12T04:20:58;21.20;65.60
67820;DHT22;54618;52.018;5.576;2022-09-12T04:23:27;21.20;65.60
67820;DHT22;54618;52.018;5.576;2022-09-12T04:25:58;21.20;65.50
67820;DHT22;54618;52.018;5.576;2022-09-12T04:28:25;21.30;65.60
67820;DHT22;54618;52.018;5.576;2022-09-12T04:30:51;21.30;65.70
67820;DHT22;54618;52.018;5.576;2022-09-12T04:33:17;21.30;65.80
67820;DHT22;54618;52.018;5.576;2022-09-12T04:35:42;21.30;65.80
67820;DHT22;54618;52.018;5.576;2022-09-12T04:38:09;21.30;65.80
67820;DHT22;54618;52.018;5.576;2022-09-12T04:40:35;21.30;65.80
67820;DHT22;54618;52.018;5.576;2022-09-12T04:43:01;21.20;65.80
67820;DHT22;54618;52.018;5.576;2022-09-12T04:45:26;21.20;65.80
67820;DHT22;54618;52.018;5.576;2022-09-12T04:47:52;21.20;65.90
67820;DHT22;54618;52.018;5.576;2022-09-12T04:50:17;21.20;65.90
67820;DHT22;54618;52.018;5.576;2022-09-12T04:52:47;21.20;65.90
67820;DHT22;54618;52.018;5.576;2022-09-12T04:55:13;21.20;65.90
67820;DHT22;54618;52.018;5.576;2022-09-12T04:57:38;21.20;65.90
67820;DHT22;54618;52.018;5.576;2022-09-12T05:00:04;21.20;65.90
67820;DHT22;54618;52.018;5.576;2022-09-12T05:02:33;21.20;65.90
67820;DHT22;54618;52.018;5.576;2022-09-12T05:04:58;21.20;65.90
67820;DHT22;54618;52.018;5.576;2022-09-12T05:07:24;21.20;65.90
67820;DHT22;54618;52.018;5.576;2022-09-12T05:09:50;21.20;65.90
67820;DHT22;54618;52.018;5.576;2022-09-12T05:12:16;21.20;65.90
67820;DHT22;54618;52.018;5.576;2022-09-12T05:14:41;21.20;65.90
67820;DHT22;54618;52.018;5.576;2022-09-12T05:17:07;21.20;65.90
67820;DHT22;54618;52.018;5.576;2022-09-12T05:19:32;21.20;65.90
67820;DHT22;54618;52.018;5.576;2022-09-12T05:21:58;21.20;65.90
67820;DHT22;54618;52.018;5.576;2022-09-12T05:24:24;21.20;65.90
67820;DHT22;54618;52.018;5.576;2022-09-12T05:26:50;21.20;65.90
67820;DHT22;54618;52.018;5.576;2022-09-12T05:29:16;21.20;65.90
67820;DHT22;54618;52.018;5.576;2022-09-12T05:31:41;21.20;65.90
67820;DHT22;54618;52.018;5.576;2022-09-12T05:34:07;21.20;65.90
67820;DHT22;54618;52.018;5.576;2022-09-12T05:36:33;21.20;65.90
67820;DHT22;54618;52.018;5.576;2022-09-12T05:38:59;21.20;65.90
67820;DHT22;54618;52.018;5.576;2022-09-12T05:41:27;21.20;65.90
67820;DHT22;54618;52.018;5.576;2022-09-12T05:44:00;21.20;65.90
67820;DHT22;54618;52.018;5.576;2022-09-12T05:46:28;21.20;65.90
67820;DHT22;54618;52.018;5.576;2022-09-12T05:48:54;21.20;66.20
67820;DHT22;54618;52.018;5.576;2022-09-12T05:51:26;21.20;65.90
67820;DHT22;54618;52.018;5.576;2022-09-12T05:53:55;21.20;65.90
67820;DHT22;54618;52.018;5.576;2022-09-12T05:56:23;21.20;65.90
67820;DHT22;54618;52.018;5.576;2022-09-12T05:58:56;21.20;65.90
67820;DHT22;54618;52.018;5.576;2022-09-12T06:01:22;21.20;65.90
67820;DHT22;54618;52.018;5.576;2022-09-12T06:03:50;21.20;65.90
67820;DHT22;54618;52.018;5.576;2022-09-12T06:06:21;21.20;65.90
67820;DHT22;54618;52.018;5.576;2022-09-12T06:08:49;21.20;65.90
67820;DHT22;54618;52.018;5.576;2022-09-12T06:11:19;21.20;65.90
67820;DHT22;54618;52.018;5.576;2022-09-12T06:13:45;21.20;65.90
67820;DHT22;54618;52.018;5.576;2022-09-12T06:16:13;21.20;65.90
67820;DHT22;54618;52.018;5.576;2022-09-12T06:18:40;21.20;65.90
67820;DHT22;54618;52.018;5.576;2022-09-12T06:21:10;21.20;66.00
67820;DHT22;54618;52.018;5.576;2022-09-12T06:23:38;21.20;65.90
67820;DHT22;54618;52.018;5.576;2022-09-12T06:26:05;21.20;66.00
67820;DHT22;54618;52.018;5.576;2022-09-12T06:28:34;21.20;66.00
67820;DHT22;54618;52.018;5.576;2022-09-12T06:31:04;21.20;66.00
67820;DHT22;54618;52.018;5.576;2022-09-12T06:33:34;21.20;66.00
67820;DHT22;54618;52.018;5.576;2022-09-12T06:36:04;21.20;66.00
67820;DHT22;54618;52.018;5.576;2022-09-12T06:38:31;21.20;66.00
67820;DHT22;54618;52.018;5.576;2022-09-12T06:40:56;21.20;66.00
67820;DHT22;54618;52.018;5.576;2022-09-12T06:43:23;21.20;66.00
67820;DHT22;54618;52.018;5.576;2022-09-12T06:45:49;21.20;66.00
67820;DHT22;54618;52.018;5.576;2022-09-12T06:48:15;21.20;66.10
67820;DHT22;54618;52.018;5.576;2022-09-12T06:50:41;21.20;66.00
67820;DHT22;54618;52.018;5.576;2022-09-12T06:53:06;21.20;66.00
67820;DHT22;54618;52.018;5.576;2022-09-12T06:55:32;21.20;66.00
67820;DHT22;54618;52.018;5.576;2022-09-12T06:57:58;21.20;66.10
67820;DHT22;54618;52.018;5.576;2022-09-12T07:00:24;21.20;66.00
67820;DHT22;54618;52.018;5.576;2022-09-12T07:02:54;21.20;66.10
67820;DHT22;54618;52.018;5.576;2022-09-12T07:05:21;21.20;66.10
67820;DHT22;54618;52.018;5.576;2022-09-12T07:07:46;21.20;66.10
67820;DHT22;54618;52.018;5.576;2022-09-12T07:10:12;21.20;66.10
67820;DHT22;54618;52.018;5.576;2022-09-12T07:12:37;21.20;66.10
67820;DHT22;54618;52.018;5.576;2022-09-12T07:15:03;21.20;66.10
67820;DHT22;54618;52.018;5.576;2022-09-12T07:17:29;21.20;66.10
67820;DHT22;54618;52.018;5.576;2022-09-12T07:19:55;21.20;66.10
67820;DHT22;54618;52.018;5.576;2022-09-12T07:22:20;21.20;66.20
67820;DHT22;54618;52.018;5.576;2022-09-12T07:24:46;21.20;66.10
67820;DHT22;54618;52.018;5.576;2022-09-12T07:27:11;21.20;66.10
67820;DHT22;54618;52.018;5.576;2022-09-12T07:29:37;21.20;66.20
67820;DHT22;54618;52.018;5.576;2022-09-12T07:32:03;21.20;66.20
67820;DHT22;54618;52.018;5.576;2022-09-12T07:34:30;21.20;66.20
67820;DHT22;54618;52.018;5.576;2022-09-12T07:36:55;21.20;66.20
67820;DHT22;54618;52.018;5.576;2022-09-12T07:39:21;21.20;66.20
67820;DHT22;54618;52.018;5.576;2022-09-12T07:41:46;21.20;66.20
67820;DHT22;54618;52.018;5.576;2022-09-12T07:44:12;21.20;66.20
67820;DHT22;54618;52.018;5.576;2022-09-12T07:46:37;21.20;66.20
67820;DHT22;54618;52.018;5.576;2022-09-12T07:49:04;21.20;66.30
67820;DHT22;54618;52.018;5.576;2022-09-12T07:51:30;21.20;66.30
67820;DHT22;54618;52.018;5.576;2022-09-12T07:53:57;21.20;66.30
67820;DHT22;54618;52.018;5.576;2022-09-12T07:56:23;21.20;66.30
67820;DHT22;54618;52.018;5.576;2022-09-12T07:58:50;21.20;66.30
67820;DHT22;54618;52.018;5.576;2022-09-12T08:01:18;21.20;66.30
67820;DHT22;54618;52.018;5.576;2022-09-12T08:03:46;21.20;66.30
67820;DHT22;54618;52.018;5.576;2022-09-12T08:06:15;21.20;66.30
67820;DHT22;54618;52.018;5.576;2022-09-12T08:08:44;21.20;66.30
67820;DHT22;54618;52.018;5.576;2022-09-12T08:11:12;21.20;66.30
67820;DHT22;54618;52.018;5.576;2022-09-12T08:13:39;21.20;66.30
67820;DHT22;54618;52.018;5.576;2022-09-12T08:16:08;21.20;66.30
67820;DHT22;54618;52.018;5.576;2022-09-12T08:18:36;21.20;66.30
67820;DHT22;54618;52.018;5.576;2022-09-12T08:21:08;21.20;66.40
67820;DHT22;54618;52.018;5.576;2022-09-12T08:23:34;21.20;66.40
67820;DHT22;54618;52.018;5.576;2022-09-12T08:26:01;21.20;66.40
67820;DHT22;54618;52.018;5.576;2022-09-12T08:28:29;21.20;66.40
67820;DHT22;54618;52.018;5.576;2022-09-12T08:31:00;21.20;66.40
67820;DHT22;54618;52.018;5.576;2022-09-12T08:33:26;21.20;66.40
67820;DHT22;54618;52.018;5.576;2022-09-12T08:36:05;21.20;66.40
67820;DHT22;54618;52.018;5.576;2022-09-12T08:38:33;21.20;66.40
67820;DHT22;54618;52.018;5.576;2022-09-12T08:55:04;21.30;66.60
67820;DHT22;54618;52.018;5.576;2022-09-12T08:57:31;21.30;66.50
67820;DHT22;54618;52.018;5.576;2022-09-12T08:59:57;21.30;66.50
67820;DHT22;54618;52.018;5.576;2022-09-12T09:02:58;21.30;66.50
67820;DHT22;54618;52.018;5.576;2022-09-12T09:08:50;21.30;66.60
67820;DHT22;54618;52.018;5.576;2022-09-12T09:11:50;21.20;66.60
67820;DHT22;54618;52.018;5.576;2022-09-12T09:17:27;21.30;66.60
67820;DHT22;54618;52.018;5.576;2022-09-12T09:19:57;21.30;66.60
67820;DHT22;54618;52.018;5.576;2022-09-12T09:25:10;21.20;66.60
67820;DHT22;54618;52.018;5.576;2022-09-12T09:27:44;21.30;66.60
67820;DHT22;54618;52.018;5.576;2022-09-12T09:30:17;21.20;66.70
67820;DHT22;54618;52.018;5.576;2022-09-12T09:32:47;21.30;66.70
67820;DHT22;54618;52.018;5.576;2022-09-12T09:35:18;21.30;66.70
67820;DHT22;54618;52.018;5.576;2022-09-12T09:43:45;21.30;66.70
67820;DHT22;54618;52.018;5.576;2022-09-12T09:46:11;21.30;66.70
67820;DHT22;54618;52.018;5.576;2022-09-12T09:48:42;21.30;66.60
67820;DHT22;54618;52.018;5.576;2022-09-12T09:51:09;21.30;66.60
67820;DHT22;54618;52.018;5.576;2022-09-12T09:53:57;21.30;66.70
67820;DHT22;54618;52.018;5.576;2022-09-12T09:56:32;21.30;66.70
67820;DHT22;54618;52.018;5.576;2022-09-12T10:01:50;21.30;66.80
67820;DHT22;54618;52.018;5.576;2022-09-12T10:04:21;21.30;66.90
67820;DHT22;54618;52.018;5.576;2022-09-12T10:06:55;21.30;66.80
67820;DHT22;54618;52.018;5.576;2022-09-12T10:11:52;21.30;66.90
67820;DHT22;54618;52.018;5.576;2022-09-12T10:14:37;21.30;66.90
67820;DHT22;54618;52.018;5.576;2022-09-12T10:17:28;21.30;67.00
67820;DHT22;54618;52.018;5.576;2022-09-12T10:19:55;21.40;67.00
67820;DHT22;54618;52.018;5.576;2022-09-12T10:22:26;21.50;66.90
67820;DHT22;54618;52.018;5.576;2022-09-12T10:24:57;21.50;66.80
67820;DHT22;54618;52.018;5.576;2022-09-12T10:27:27;21.60;66.70
67820;DHT22;54618;52.018;5.576;2022-09-12T10:29:59;21.60;66.60
67820;DHT22;54618;52.018;5.576;2022-09-12T10:32:33;21.70;66.60
67820;DHT22;54618;52.018;5.576;2022-09-12T10:35:21;21.70;66.50
67820;DHT22;54618;52.018;5.576;2022-09-12T10:37:57;21.70;66.40
67820;DHT22;54618;52.018;5.576;2022-09-12T10:40:44;21.80;66.40
67820;DHT22;54618;52.018;5.576;2022-09-12T10:48:38;21.80;66.30
67820;DHT22;54618;52.018;5.576;2022-09-12T10:51:04;21.80;66.30
67820;DHT22;54618;52.018;5.576;2022-09-12T10:53:40;21.80;66.30
67820;DHT22;54618;52.018;5.576;2022-09-12T10:56:41;21.80;66.20
67820;DHT22;54618;52.018;5.576;2022-09-12T11:01:40;21.80;66.30
67820;DHT22;54618;52.018;5.576;2022-09-12T11:06:42;21.80;66.30
67820;DHT22;54618;52.018;5.576;2022-09-12T11:12:19;21.80;66.20
67820;DHT22;54618;52.018;5.576;2022-09-12T11:17:55;21.80;66.20
67820;DHT22;54618;52.018;5.576;2022-09-12T11:27:00;21.80;66.10
67820;DHT22;54618;52.018;5.576;2022-09-12T11:35:21;21.80;66.20
67820;DHT22;54618;52.018;5.576;2022-09-12T11:38:23;21.90;66.20
67820;DHT22;54618;52.018;5.576;2022-09-12T11:41:02;21.90;66.00
67820;DHT22;54618;52.018;5.576;2022-09-12T11:46:36;22.00;66.00
67820;DHT22;54618;52.018;5.576;2022-09-12T11:54:44;22.00;65.90
67820;DHT22;54618;52.018;5.576;2022-09-12T12:00:08;22.00;65.90
67820;DHT22;54618;52.018;5.576;2022-09-12T12:03:08;22.00;65.90
67820;DHT22;54618;52.018;5.576;2022-09-12T12:05:51;22.00;65.90
67820;DHT22;54618;52.018;5.576;2022-09-12T12:08:20;22.00;65.90
67820;DHT22;54618;52.018;5.576;2022-09-12T12:10:58;22.00;65.90
67820;DHT22;54618;52.018;5.576;2022-09-12T12:15:56;22.00;65.90
67820;DHT22;54618;52.018;5.576;2022-09-12T12:18:25;22.00;65.90
67820;DHT22;54618;52.018;5.576;2022-09-12T12:20:52;22.00;65.90
67820;DHT22;54618;52.018;5.576;2022-09-12T12:23:25;22.00;66.00
67820;DHT22;54618;52.018;5.576;2022-09-12T12:25:59;22.00;65.90
67820;DHT22;54618;52.018;5.576;2022-09-12T12:31:06;22.00;65.90
67820;DHT22;54618;52.018;5.576;2022-09-12T12:38:33;22.00;65.90
67820;DHT22;54618;52.018;5.576;2022-09-12T12:43:48;22.00;66.00
67820;DHT22;54618;52.018;5.576;2022-09-12T12:46:17;22.00;66.00
67820;DHT22;54618;52.018;5.576;2022-09-12T12:51:44;22.00;65.90
67820;DHT22;54618;52.018;5.576;2022-09-12T12:59:29;22.00;65.90
67820;DHT22;54618;52.018;5.576;2022-09-12T13:01:56;22.00;66.00
67820;DHT22;54618;52.018;5.576;2022-09-12T13:04:28;22.00;66.00
67820;DHT22;54618;52.018;5.576;2022-09-12T13:07:01;22.00;66.00
67820;DHT22;54618;52.018;5.576;2022-09-12T13:09:46;22.00;66.00
67820;DHT22;54618;52.018;5.576;2022-09-12T13:14:58;21.90;66.00
67820;DHT22;54618;52.018;5.576;2022-09-12T13:17:35;22.00;65.90
67820;DHT22;54618;52.018;5.576;2022-09-12T13:20:17;22.00;66.00
67820;DHT22;54618;52.018;5.576;2022-09-12T13:22:48;22.00;65.90
67820;DHT22;54618;52.018;5.576;2022-09-12T13:28:06;22.00;66.00
67820;DHT22;54618;52.018;5.576;2022-09-12T13:30:37;21.90;65.90
67820;DHT22;54618;52.018;5.576;2022-09-12T13:36:04;22.00;65.90
67820;DHT22;54618;52.018;5.576;2022-09-12T13:38:36;21.90;65.90
67820;DHT22;54618;52.018;5.576;2022-09-12T13:44:03;21.90;65.90
67820;DHT22;54618;52.018;5.576;2022-09-12T13:46:30;21.90;66.00
67820;DHT22;54618;52.018;5.576;2022-09-12T13:48:59;21.90;66.00
67820;DHT22;54618;52.018;5.576;2022-09-12T13:51:28;21.90;66.00
67820;DHT22;54618;52.018;5.576;2022-09-12T13:53:58;21.90;66.00
67820;DHT22;54618;52.018;5.576;2022-09-12T13:56:26;21.90;65.90
67820;DHT22;54618;52.018;5.576;2022-09-12T13:59:00;21.90;65.90
67820;DHT22;54618;52.018;5.576;2022-09-12T14:01:41;21.90;65.90
67820;DHT22;54618;52.018;5.576;2022-09-12T14:04:23;21.90;65.90
67820;DHT22;54618;52.018;5.576;2022-09-12T14:07:22;21.90;65.90
67820;DHT22;54618;52.018;5.576;2022-09-12T14:09:58;21.90;66.50
67820;DHT22;54618;52.018;5.576;2022-09-12T14:12:29;21.90;65.90
67820;DHT22;54618;52.018;5.576;2022-09-12T14:14:56;21.90;65.90
67820;DHT22;54618;52.018;5.576;2022-09-12T14:17:33;21.90;65.90
67820;DHT22;54618;52.018;5.576;2022-09-12T14:20:21;21.90;65.90
67820;DHT22;54618;52.018;5.576;2022-09-12T14:22:49;21.90;65.90
67820;DHT22;54618;52.018;5.576;2022-09-12T14:25:17;21.90;65.90
67820;DHT22;54618;52.018;5.576;2022-09-12T14:27:46;21.90;65.90
67820;DHT22;54618;52.018;5.576;2022-09-12T14:35:30;21.90;65.90
67820;DHT22;54618;52.018;5.576;2022-09-12T14:38:30;21.90;65.90
67820;DHT22;54618;52.018;5.576;2022-09-12T14:40:59;21.90;65.90
67820;DHT22;54618;52.018;5.576;2022-09-12T14:43:27;21.90;65.90
67820;DHT22;54618;52.018;5.576;2022-09-12T14:45:59;21.90;65.90
67820;DHT22;54618;52.018;5.576;2022-09-12T14:48:34;21.90;65.90
67820;DHT22;54618;52.018;5.576;2022-09-12T14:51:01;21.90;66.00
67820;DHT22;54618;52.018;5.576;2022-09-12T14:53:34;21.90;66.00
67820;DHT22;54618;52.018;5.576;2022-09-12T14:56:09;21.90;66.10
67820;DHT22;54618;52.018;5.576;2022-09-12T14:58:37;21.90;66.10
67820;DHT22;54618;52.018;5.576;2022-09-12T15:03:51;21.90;66.30
67820;DHT22;54618;52.018;5.576;2022-09-12T15:06:25;21.90;66.20
67820;DHT22;54618;52.018;5.576;2022-09-12T15:08:52;21.90;66.30
67820;DHT22;54618;52.018;5.576;2022-09-12T15:11:19;21.90;66.40
67820;DHT22;54618;52.018;5.576;2022-09-12T15:13:44;21.90;66.40
67820;DHT22;54618;52.018;5.576;2022-09-12T15:16:10;21.90;66.50
67820;DHT22;54618;52.018;5.576;2022-09-12T15:18:37;21.90;66.50
67820;DHT22;54618;52.018;5.576;2022-09-12T15:21:07;21.80;66.40
67820;DHT22;54618;52.018;5.576;2022-09-12T15:23:49;21.80;66.40
67820;DHT22;54618;52.018;5.576;2022-09-12T15:26:18;21.80;66.40
67820;DHT22;54618;52.018;5.576;2022-09-12T15:28:44;21.80;66.50
67820;DHT22;54618;52.018;5.576;2022-09-12T15:31:23;21.80;66.60
67820;DHT22;54618;52.018;5.576;2022-09-12T15:33:49;21.80;66.50
67820;DHT22;54618;52.018;5.576;2022-09-12T15:36:17;21.80;66.60
67820;DHT22;54618;52.018;5.576;2022-09-12T15:38:44;21.80;66.50
67820;DHT22;54618;52.018;5.576;2022-09-12T15:41:19;21.80;66.50
67820;DHT22;54618;52.018;5.576;2022-09-12T15:43:45;21.80;66.60
67820;DHT22;54618;52.018;5.576;2022-09-12T15:46:12;21.80;66.60
67820;DHT22;54618;52.018;5.576;2022-09-12T15:48:39;21.80;66.70
67820;DHT22;54618;52.018;5.576;2022-09-12T15:51:16;21.80;66.70
67820;DHT22;54618;52.018;5.576;2022-09-12T15:53:43;21.80;66.70
67820;DHT22;54618;52.018;5.576;2022-09-12T15:56:09;21.80;66.80
67820;DHT22;54618;52.018;5.576;2022-09-12T15:58:35;21.80;66.70
67820;DHT22;54618;52.018;5.576;2022-09-12T16:01:00;21.80;66.80
67820;DHT22;54618;52.018;5.576;2022-09-12T16:03:28;21.80;66.80
67820;DHT22;54618;52.018;5.576;2022-09-12T16:06:01;21.80;66.80
67820;DHT22;54618;52.018;5.576;2022-09-12T16:08:28;21.80;66.80
67820;DHT22;54618;52.018;5.576;2022-09-12T16:11:02;21.80;66.80
67820;DHT22;54618;52.018;5.576;2022-09-12T16:13:30;21.80;66.90
67820;DHT22;54618;52.018;5.576;2022-09-12T16:15:57;21.80;66.90
67820;DHT22;54618;52.018;5.576;2022-09-12T16:18:23;21.80;66.90
67820;DHT22;54618;52.018;5.576;2022-09-12T16:20:52;21.80;66.90
67820;DHT22;54618;52.018;5.576;2022-09-12T16:23:18;21.80;66.90
67820;DHT22;54618;52.018;5.576;2022-09-12T16:25:43;21.80;67.00
67820;DHT22;54618;52.018;5.576;2022-09-12T16:28:09;21.80;67.00
67820;DHT22;54618;52.018;5.576;2022-09-12T16:30:35;21.80;67.00
67820;DHT22;54618;52.018;5.576;2022-09-12T16:33:00;21.80;67.00
67820;DHT22;54618;52.018;5.576;2022-09-12T16:35:26;21.80;67.00
67820;DHT22;54618;52.018;5.576;2022-09-12T16:37:52;21.80;67.10
67820;DHT22;54618;52.018;5.576;2022-09-12T16:40:18;21.80;67.10
67820;DHT22;54618;52.018;5.576;2022-09-12T16:42:46;21.80;67.10
67820;DHT22;54618;52.018;5.576;2022-09-12T16:45:12;21.80;67.80
67820;DHT22;54618;52.018;5.576;2022-09-12T16:47:38;21.80;67.20
67820;DHT22;54618;52.018;5.576;2022-09-12T16:50:04;21.80;67.20
67820;DHT22;54618;52.018;5.576;2022-09-12T16:52:32;21.80;67.20
67820;DHT22;54618;52.018;5.576;2022-09-12T16:54:57;21.80;67.30
67820;DHT22;54618;52.018;5.576;2022-09-12T16:57:23;21.80;67.30
67820;DHT22;54618;52.018;5.576;2022-09-12T16:59:49;21.80;67.30
67820;DHT22;54618;52.018;5.576;2022-09-12T17:02:15;21.80;67.40
67820;DHT22;54618;52.018;5.576;2022-09-12T17:04:40;21.80;67.40
67820;DHT22;54618;52.018;5.576;2022-09-12T17:07:06;21.80;67.40
67820;DHT22;54618;52.018;5.576;2022-09-12T17:09:32;21.80;67.40
67820;DHT22;54618;52.018;5.576;2022-09-12T17:11:58;21.80;67.50
67820;DHT22;54618;52.018;5.576;2022-09-12T17:14:24;21.80;67.50
67820;DHT22;54618;52.018;5.576;2022-09-12T17:16:50;21.80;67.50
67820;DHT22;54618;52.018;5.576;2022-09-12T17:19:24;21.80;67.50
67820;DHT22;54618;52.018;5.576;2022-09-12T17:21:57;21.80;67.50
67820;DHT22;54618;52.018;5.576;2022-09-12T17:24:23;21.80;67.50
67820;DHT22;54618;52.018;5.576;2022-09-12T17:26:49;21.80;67.50
67820;DHT22;54618;52.018;5.576;2022-09-12T17:29:15;21.80;67.50
67820;DHT22;54618;52.018;5.576;2022-09-12T17:31:42;21.80;67.50
67820;DHT22;54618;52.018;5.576;2022-09-12T17:34:08;21.80;67.50
67820;DHT22;54618;52.018;5.576;2022-09-12T17:36:34;21.80;67.50
67820;DHT22;54618;52.018;5.576;2022-09-12T17:39:03;21.70;67.40
67820;DHT22;54618;52.018;5.576;2022-09-12T17:41:29;21.70;67.40
67820;DHT22;54618;52.018;5.576;2022-09-12T17:43:59;21.70;67.40
67820;DHT22;54618;52.018;5.576;2022-09-12T17:46:33;21.80;67.60
67820;DHT22;54618;52.018;5.576;2022-09-12T17:49:04;21.70;67.40
67820;DHT22;54618;52.018;5.576;2022-09-12T17:51:31;21.70;67.40
67820;DHT22;54618;52.018;5.576;2022-09-12T17:54:09;21.70;67.40
67820;DHT22;54618;52.018;5.576;2022-09-12T17:56:36;21.70;67.50
67820;DHT22;54618;52.018;5.576;2022-09-12T17:59:03;21.70;67.50
67820;DHT22;54618;52.018;5.576;2022-09-12T18:01:29;21.80;67.50
67820;DHT22;54618;52.018;5.576;2022-09-12T18:04:15;21.70;67.50
67820;DHT22;54618;52.018;5.576;2022-09-12T18:06:40;21.70;67.40
67820;DHT22;54618;52.018;5.576;2022-09-12T18:09:12;21.70;68.00
67820;DHT22;54618;52.018;5.576;2022-09-12T18:11:38;21.70;67.50
67820;DHT22;54618;52.018;5.576;2022-09-12T18:14:04;21.70;67.50
67820;DHT22;54618;52.018;5.576;2022-09-12T18:16:30;21.70;67.40
67820;DHT22;54618;52.018;5.576;2022-09-12T18:18:59;21.70;67.30
67820;DHT22;54618;52.018;5.576;2022-09-12T18:21:28;21.70;67.40